Time;durP1;ratioP1;P1;durP2;ratioP2;P2;SDS_P1;SDS_P2;PMS_P1;PMS_P2;Temp;Humidity;BMP_temperature;BMP_pressure;BME280_temperature;BME280_humidity;BME280_pressure;Samples;Min_cycle;Max_cycle;Signal;HPM_P1;HPM_P2
2020/12/11 00:02:31;;;;;;;;;;;1.20;99.90;;;0.20;84.42;94640.19;10386401;28;1943;-79
2020/12/11 00:07:33;;;;;;;;;;;1.20;99.90;;;0.13;84.16;94629.75;10384915;28;1837;-82
2020/12/11 00:12:35;;;;;;;;;;;1.30;99.90;;;0.16;84.69;94618.69;10380306;28;2006;-80
2020/12/11 00:17:36;;;;;;;;;;;1.20;99.90;;;0.05;85.27;94618.75;10391894;28;1973;-81
2020/12/11 00:22:38;;;;;;;;;;;1.20;99.90;;;0.06;85.03;94628.28;10381068;28;2340;-80
2020/12/11 00:27:40;;;;;;;;;;;1.20;99.90;;;0.10;84.76;94619.66;10386652;28;2066;-82
2020/12/11 00:32:41;;;;;;;;;;;1.20;99.90;;;0.16;84.74;94612.63;10383043;28;1955;-81
2020/12/11 00:37:43;;;;;;;;;;;1.20;99.90;;;0.22;84.48;94616.94;10385088;28;2021;-81
2020/12/11 00:42:45;;;;;;;;;;;1.30;99.90;;;0.28;84.19;94620.50;10383972;28;1888;-82
2020/12/11 00:47:46;;;;;;;;;;;1.40;99.90;;;0.23;83.86;94614.06;10396949;28;1798;-82
2020/12/11 00:52:48;;;;;;;;;;;1.30;99.90;;;0.14;84.75;94604.13;10392385;28;2197;-81
2020/12/11 00:57:50;;;;;;;;;;;1.30;99.90;;;0.08;84.92;94594.50;10386518;28;1914;-81
2020/12/11 01:02:52;;;;;;;;;;;2.50;99.90;;;0.18;85.07;94592.03;10386871;28;1968;-82
2020/12/11 01:07:53;;;;;;;;;;;1.30;99.90;;;0.18;84.89;94598.13;10377940;28;1974;-82
2020/12/11 01:12:55;;;;;;;;;;;2.60;99.90;;;0.31;84.68;94597.00;10380353;28;1712;-82
2020/12/11 01:17:58;;;;;;;;;;;1.30;99.90;;;0.40;84.62;94603.53;10379294;28;1988;-82
2020/12/11 01:22:59;;;;;;;;;;;1.40;99.90;;;0.43;83.80;94589.81;10382414;28;2033;-82
2020/12/11 01:28:01;;;;;;;;;;;2.00;99.90;;;0.50;84.06;94587.81;10372390;28;1917;-80
2020/12/11 01:33:02;;;;;;;;;;;1.60;99.90;;;0.51;83.87;94581.50;10384906;28;1857;-81
2020/12/11 01:38:04;;;;;;;;;;;1.60;99.90;;;0.52;83.84;94585.75;10383347;28;1983;-80
2020/12/11 01:43:06;;;;;;;;;;;2.40;99.90;;;0.64;83.88;94588.31;10388110;28;2302;-81
2020/12/11 01:48:08;;;;;;;;;;;1.70;99.90;;;0.80;82.61;94576.94;10385768;28;1982;-81
2020/12/11 01:53:10;;;;;;;;;;;1.80;99.90;;;0.85;80.18;94588.63;10386561;28;2317;-81
2020/12/11 01:58:11;;;;;;;;;;;2.00;99.90;;;0.96;79.14;94570.03;10383559;28;2113;-81
2020/12/11 02:03:13;;;;;;;;;;;2.00;99.90;;;0.91;78.35;94569.94;10387652;28;1976;-81
2020/12/11 02:08:15;;;;;;;;;;;2.00;99.90;;;0.96;78.44;94575.31;10388074;28;1960;-81
2020/12/11 02:13:16;;;;;;;;;;;2.00;99.90;;;1.05;77.42;94560.63;10388471;28;2169;-82
2020/12/11 02:18:18;;;;;;;;;;;2.10;99.90;;;1.15;77.31;94556.53;10392893;28;1978;-81
2020/12/11 02:23:20;;;;;;;;;;;3.20;99.90;;;1.21;77.15;94558.16;10400933;28;1969;-82
2020/12/11 02:28:22;;;;;;;;;;;4.00;99.90;;;1.18;77.05;94545.44;10384243;28;3033;-81
2020/12/11 02:33:24;;;;;;;;;;;2.30;99.90;;;1.13;77.02;94532.94;10387120;28;3202;-80
2020/12/11 02:38:26;;;;;;;;;;;2.20;99.90;;;1.08;77.09;94528.38;10384550;28;2392;-81
2020/12/11 02:43:28;;;;;;;;;;;2.90;99.90;;;1.13;77.66;94526.84;10394808;28;2072;-82
2020/12/11 02:48:29;;;;;;;;;;;2.20;99.90;;;1.13;78.15;94532.94;10387611;28;2502;-81
2020/12/11 02:53:31;;;;;;;;;;;2.90;99.90;;;1.08;78.61;94523.09;10398122;28;2015;-81
2020/12/11 02:58:33;;;;;;;;;;;3.00;99.90;;;0.94;80.12;94505.94;10400201;28;2119;-80
2020/12/11 03:03:34;;;;;;;;;;;2.20;99.90;;;0.92;80.77;94505.41;10389884;28;2444;-82
2020/12/11 03:08:36;;;;;;;;;;;2.10;99.90;;;0.78;81.79;94496.22;10399366;28;2424;-82
2020/12/11 03:13:38;;;;;;;;;;;2.00;99.90;;;0.77;82.31;94491.97;10393757;28;2016;-82
2020/12/11 03:18:39;;;;;;;;;;;1.90;99.90;;;0.71;82.58;94490.31;10381988;28;2018;-81
2020/12/11 03:23:41;;;;;;;;;;;2.90;99.90;;;0.50;83.29;94482.06;10389187;28;2354;-81
2020/12/11 03:28:42;;;;;;;;;;;1.80;99.90;;;0.42;83.76;94477.19;10386240;28;1937;-81
2020/12/11 03:33:44;;;;;;;;;;;1.70;99.90;;;0.27;84.31;94476.97;10387797;28;1858;-81
2020/12/11 03:38:46;;;;;;;;;;;1.60;99.90;;;0.26;84.56;94470.09;10401898;28;2052;-81
2020/12/11 03:43:47;;;;;;;;;;;1.60;99.90;;;0.24;84.87;94472.16;10411949;28;2059;-81
2020/12/11 03:48:49;;;;;;;;;;;1.40;99.90;;;0.34;84.52;94464.38;10423184;28;2088;-81
2020/12/11 03:53:51;;;;;;;;;;;1.50;99.90;;;0.17;84.73;94461.75;10404025;28;2134;-80
2020/12/11 03:58:53;;;;;;;;;;;1.40;99.90;;;0.13;85.01;94449.28;10419430;28;2341;-81
2020/12/11 04:03:55;;;;;;;;;;;1.30;99.90;;;0.03;85.59;94457.81;10417201;28;2332;-80
2020/12/11 04:08:57;;;;;;;;;;;1.30;99.90;;;-0.11;86.03;94459.19;10420612;28;1980;-82
2020/12/11 04:13:58;;;;;;;;;;;1.10;99.90;;;-0.42;86.18;94434.91;10410053;28;2072;-81
2020/12/11 04:19:00;;;;;;;;;;;2.60;99.90;;;-0.61;87.35;94436.94;10385300;28;2111;-82
2020/12/11 04:24:01;;;;;;;;;;;0.80;99.90;;;-0.75;88.05;94438.25;10396218;28;2509;-81
2020/12/11 04:29:03;;;;;;;;;;;0.60;99.90;;;-0.82;88.42;94443.69;10398809;28;2437;-81
2020/12/11 04:34:05;;;;;;;;;;;0.50;99.90;;;-0.76;88.61;94441.94;10386521;28;1871;-82
2020/12/11 04:39:06;;;;;;;;;;;0.50;99.90;;;-0.83;88.25;94428.06;10401796;28;2045;-80
2020/12/11 04:44:08;;;;;;;;;;;0.40;99.90;;;-0.98;88.38;94417.22;10409769;28;1758;-82
2020/12/11 04:49:10;;;;;;;;;;;0.30;99.90;;;-0.99;88.56;94419.06;10400393;28;2115;-80
2020/12/11 04:54:12;;;;;;;;;;;0.30;99.90;;;-1.06;88.30;94415.78;10411289;28;2496;-79
2020/12/11 04:59:13;;;;;;;;;;;0.20;99.90;;;-1.13;89.27;94410.63;10407331;28;1973;-81
2020/12/11 05:04:15;;;;;;;;;;;2.10;99.90;;;-1.13;89.17;94400.09;10414169;28;2063;-82
2020/12/11 05:09:17;;;;;;;;;;;0.10;99.90;;;-1.29;88.95;94385.00;10414290;28;2292;-80
2020/12/11 05:14:18;;;;;;;;;;;0.90;99.90;;;-1.40;89.50;94377.91;10414411;28;2235;-80
2020/12/11 05:19:20;;;;;;;;;;;-0.10;99.90;;;-1.33;89.89;94370.69;10410407;28;2014;-81
2020/12/11 05:24:22;;;;;;;;;;;-0.20;99.90;;;-1.15;89.12;94383.69;10410888;28;2006;-82
2020/12/11 05:29:24;;;;;;;;;;;-0.10;99.90;;;-1.04;88.39;94365.41;10386277;28;2150;-82
2020/12/11 05:34:26;;;;;;;;;;;0.00;99.90;;;-1.05;88.03;94355.91;10380472;28;2471;-81
2020/12/11 05:39:27;;;;;;;;;;;0.10;99.90;;;-0.90;87.40;94345.63;10392327;28;1894;-81
2020/12/11 05:44:30;;;;;;;;;;;0.20;99.90;;;-0.72;87.62;94347.25;10373623;28;2393;-82
2020/12/11 05:49:32;;;;;;;;;;;1.70;99.90;;;-0.75;87.06;94343.28;10386618;28;2504;-80
2020/12/11 05:54:34;;;;;;;;;;;0.40;99.90;;;-0.57;87.48;94342.25;10377694;28;2411;-82
2020/12/11 05:59:35;;;;;;;;;;;0.40;99.90;;;-0.47;86.58;94334.47;10377531;28;2372;-82
2020/12/11 06:04:37;;;;;;;;;;;0.60;99.90;;;-0.52;86.56;94337.03;10374643;28;2582;-80
2020/12/11 06:09:39;;;;;;;;;;;0.70;99.90;;;-0.52;86.05;94344.94;10383737;28;2322;-81
2020/12/11 06:14:40;;;;;;;;;;;0.60;99.90;;;-0.43;86.02;94340.09;10398504;28;1944;-82
2020/12/11 06:19:42;;;;;;;;;;;0.70;99.90;;;-0.53;86.31;94339.91;10396025;28;1890;-83
2020/12/11 06:24:44;;;;;;;;;;;0.70;99.90;;;-0.48;86.25;94332.09;10401055;28;1452;-83
2020/12/11 06:29:45;;;;;;;;;;;0.60;99.90;;;-0.44;86.27;94317.38;10391464;28;1583;-81
2020/12/11 06:34:47;;;;;;;;;;;0.60;99.90;;;-0.47;85.89;94317.84;10397336;28;2301;-82
2020/12/11 06:39:49;;;;;;;;;;;0.70;99.90;;;-0.41;85.41;94311.59;10418592;28;1972;-81
2020/12/11 06:44:51;;;;;;;;;;;0.70;99.90;;;-0.25;85.38;94304.69;10407198;28;1917;-80
2020/12/11 06:49:52;;;;;;;;;;;2.00;99.90;;;-0.32;84.89;94299.59;10409214;28;2077;-79
2020/12/11 06:54:54;;;;;;;;;;;0.80;99.90;;;-0.40;85.74;94284.97;10400009;28;1945;-80
2020/12/11 06:59:55;;;;;;;;;;;0.90;99.90;;;-0.60;86.35;94277.53;10396966;28;2171;-79
2020/12/11 07:04:57;;;;;;;;;;;0.70;99.90;;;-0.55;86.63;94288.19;10403373;28;2108;-78
2020/12/11 07:09:59;;;;;;;;;;;2.10;99.90;;;-0.34;86.17;94275.28;10388054;28;2115;-81
2020/12/11 07:15:01;;;;;;;;;;;0.60;99.90;;;-0.24;85.53;94262.22;10389558;28;1995;-80
2020/12/11 07:20:02;;;;;;;;;;;0.80;99.90;;;-0.15;84.74;94266.03;10395648;28;2073;-80
2020/12/11 07:25:04;;;;;;;;;;;0.90;99.90;;;0.07;84.27;94273.22;10395897;28;1657;-79
2020/12/11 07:30:06;;;;;;;;;;;1.10;99.90;;;0.11;84.28;94282.22;10387207;28;2213;-80
2020/12/11 07:35:07;;;;;;;;;;;3.30;99.90;;;0.30;83.21;94280.88;10396692;28;2076;-79
2020/12/11 07:40:09;;;;;;;;;;;1.30;99.90;;;0.21;82.98;94277.09;10394221;28;1988;-79
2020/12/11 07:45:11;;;;;;;;;;;1.30;99.90;;;0.17;83.35;94260.91;10396333;28;2311;-81
2020/12/11 07:50:13;;;;;;;;;;;1.30;99.90;;;0.09;83.35;94271.13;10385958;28;1940;-81
2020/12/11 07:55:15;;;;;;;;;;;1.20;99.90;;;-0.01;84.13;94264.63;10384888;28;2033;-81
2020/12/11 08:00:17;;;;;;;;;;;1.00;99.90;;;0.04;83.58;94265.75;10390236;28;2065;-81
2020/12/11 08:05:19;;;;;;;;;;;3.50;99.90;;;0.08;83.92;94245.75;10396253;28;2089;-80
2020/12/11 08:10:20;;;;;;;;;;;2.50;99.90;;;0.11;83.92;94245.25;10382205;28;1793;-79
2020/12/11 08:15:26;;;;;;;;;;;1.30;99.90;;;0.32;82.92;94239.16;10388261;28;2091;-80
2020/12/11 08:20:32;;;;;;;;;;;1.20;99.90;;;0.28;82.88;94232.75;10394558;28;2135;-84
2020/12/11 08:25:34;;;;;;;;;;;1.30;99.90;;;0.12;82.98;94225.69;10387670;28;2401;-81
2020/12/11 08:30:36;;;;;;;;;;;1.30;99.90;;;0.20;83.30;94220.00;10393139;28;2531;-82
2020/12/11 08:35:38;;;;;;;;;;;1.20;99.90;;;0.54;82.25;94221.41;10393398;28;1944;-83
2020/12/11 08:40:39;;;;;;;;;;;2.80;99.90;;;0.44;81.67;94216.00;10388964;28;2107;-82
2020/12/11 08:45:44;;;;;;;;;;;1.50;99.90;;;0.17;82.27;94223.13;10391574;28;1865;-83
2020/12/11 08:50:54;;;;;;;;;;;1.40;99.90;;;0.30;82.70;94214.81;10389443;28;2128;-85
2020/12/11 08:56:06;;;;;;;;;;;2.60;99.90;;;0.48;82.42;94211.84;10390697;28;2084;-82
2020/12/11 09:01:08;;;;;;;;;;;2.70;99.90;;;0.77;81.29;94190.44;10391415;28;2041;-83
2020/12/11 09:06:09;;;;;;;;;;;1.60;99.90;;;0.72;80.96;94198.31;10384919;28;1964;-83
2020/12/11 09:11:11;;;;;;;;;;;3.50;99.90;;;0.78;80.83;94197.31;10384624;28;2152;-82
2020/12/11 09:16:13;;;;;;;;;;;1.80;99.90;;;1.02;80.65;94189.88;10396004;28;2299;-82
2020/12/11 09:21:14;;;;;;;;;;;1.90;99.90;;;1.29;79.38;94187.16;10393113;28;1933;-82
2020/12/11 09:26:16;;;;;;;;;;;2.20;99.90;;;1.55;78.94;94169.56;10395955;28;2094;-81
2020/12/11 09:31:18;;;;;;;;;;;2.50;99.90;;;1.89;76.72;94165.50;10389424;28;2461;-78
2020/12/11 09:36:19;;;;;;;;;;;4.00;99.90;;;1.67;76.93;94158.78;10391926;28;2004;-82
2020/12/11 09:41:26;;;;;;;;;;;2.80;99.90;;;1.55;77.03;94148.38;10397650;28;1849;-81
2020/12/11 09:46:36;;;;;;;;;;;3.70;99.90;;;1.30;78.17;94139.22;10389859;28;2563;-82
2020/12/11 09:57:16;;;;;;;;;;;2.30;99.90;;;1.60;77.82;94124.56;10359033;28;2107;-78
2020/12/11 10:02:28;;;;;;;;;;;2.60;99.90;;;2.00;76.52;94123.94;10402453;28;2040;-77
2020/12/11 10:07:30;;;;;;;;;;;2.90;99.90;;;1.80;76.34;94100.81;10392047;28;2127;-79
2020/12/11 10:12:32;;;;;;;;;;;2.90;99.90;;;1.72;76.49;94089.91;10402983;28;2083;-78
2020/12/11 10:17:33;;;;;;;;;;;3.20;99.90;;;1.53;76.87;94093.03;10428208;28;1879;-79
2020/12/11 10:22:35;;;;;;;;;;;2.60;99.90;;;1.68;76.72;94083.56;10425638;28;1829;-80
2020/12/11 10:27:38;;;;;;;;;;;2.60;99.90;;;1.88;75.25;94070.38;10427874;28;1885;-80
2020/12/11 10:32:41;;;;;;;;;;;5.00;99.90;;;2.08;74.24;94067.75;10409111;28;2514;-83
2020/12/11 10:37:43;;;;;;;;;;;3.20;99.90;;;2.43;73.97;94059.06;10395869;28;2132;-82
2020/12/11 10:42:45;;;;;;;;;;;4.40;99.90;;;2.29;74.50;94063.31;10410782;28;2036;-81
2020/12/11 10:47:47;;;;;;;;;;;3.30;99.90;;;2.38;73.63;94066.22;10396160;28;2123;-79
2020/12/11 10:52:49;;;;;;;;;;;3.30;99.90;;;2.15;75.33;94062.22;10390380;28;1964;-80
2020/12/11 10:57:51;;;;;;;;;;;3.30;99.90;;;2.34;74.80;94054.53;10396715;28;1916;-81
2020/12/11 11:02:52;;;;;;;;;;;3.30;99.90;;;1.96;75.86;94053.16;10399083;28;1928;-83
2020/12/11 11:07:55;;;;;;;;;;;3.10;99.90;;;2.00;75.56;94051.59;10405812;28;2005;-82
2020/12/11 11:13:07;;;;;;;;;;;5.10;99.90;;;1.71;77.21;94043.28;10428434;28;1874;-82
2020/12/11 11:18:31;;;;;;;;;;;2.80;99.90;;;1.55;77.89;94035.31;10413470;28;1883;-81
2020/12/11 11:23:53;;;;;;;;;;;2.60;99.90;;;1.68;77.37;94035.88;10409453;28;1373;-81
2020/12/11 11:28:55;;;;;;;;;;;2.70;99.90;;;1.51;77.14;94042.16;10396354;28;1734;-82
2020/12/11 11:34:01;;;;;;;;;;;2.50;99.90;;;1.18;78.90;94051.28;10393231;28;2130;-81
2020/12/11 11:39:03;;;;;;;;;;;5.00;99.90;;;1.40;78.38;94039.72;10392254;28;1918;-82
2020/12/11 11:44:28;;;;;;;;;;;2.30;99.90;;;1.73;77.51;94038.53;10391340;28;1998;-82
2020/12/11 11:49:35;;;;;;;;;;;2.60;99.90;;;1.79;76.69;94025.06;10384642;28;1992;-82
2020/12/11 11:54:37;;;;;;;;;;;2.80;99.90;;;1.77;77.15;94031.66;10396772;28;1932;-82
2020/12/11 11:59:39;;;;;;;;;;;3.50;99.90;;;1.63;77.95;94029.50;10394581;28;1906;-81
2020/12/11 12:04:41;;;;;;;;;;;3.00;99.90;;;1.57;77.84;94029.75;10395978;28;2001;-82
2020/12/11 12:09:42;;;;;;;;;;;2.70;99.90;;;2.10;76.51;94025.09;10408720;28;2034;-82
2020/12/11 12:14:47;;;;;;;;;;;2.90;99.90;;;2.31;75.92;94025.94;10413257;28;1827;-83
2020/12/11 12:19:50;;;;;;;;;;;3.20;99.90;;;2.44;74.18;94022.75;10406472;28;1883;-82
2020/12/11 12:30:14;;;;;;;;;;;3.20;99.90;;;1.71;76.33;94022.09;10386455;28;1933;-83
2020/12/11 12:35:28;;;;;;;;;;;3.00;99.90;;;1.56;77.64;94007.75;10415326;28;1769;-83
2020/12/11 12:40:49;;;;;;;;;;;2.70;99.90;;;1.12;79.33;94003.88;10390375;28;1936;-83
2020/12/11 12:45:51;;;;;;;;;;;2.40;99.90;;;1.13;80.10;94002.81;10392042;28;2049;-83
2020/12/11 12:50:52;;;;;;;;;;;2.40;99.90;;;0.82;80.22;93992.09;10397361;28;1929;-82
2020/12/11 13:01:16;;;;;;;;;;;1.90;99.90;;;0.81;80.58;94001.06;10409087;28;2080;-82
2020/12/11 13:06:20;;;;;;;;;;;2.80;99.90;;;0.80;80.97;93996.84;10422415;28;2300;-83
2020/12/11 13:11:22;;;;;;;;;;;2.00;99.90;;;0.90;80.74;94004.84;10425156;28;1400;-83
2020/12/11 13:16:24;;;;;;;;;;;1.90;99.90;;;1.13;80.22;93994.88;10416995;28;2038;-82
2020/12/11 13:21:30;;;;;;;;;;;2.10;99.90;;;0.92;80.11;93994.78;10409771;28;2139;-84
2020/12/11 13:26:43;;;;;;;;;;;2.10;99.90;;;0.61;81.53;93996.47;10421573;28;2161;-81
2020/12/11 13:31:46;;;;;;;;;;;1.80;99.90;;;0.48;83.04;93992.41;10414970;28;1614;-82
2020/12/11 13:36:48;;;;;;;;;;;3.60;99.90;;;0.69;82.59;93981.97;10388545;28;2067;-83
2020/12/11 13:41:49;;;;;;;;;;;1.70;99.90;;;0.71;82.17;93969.28;10385783;28;1964;-83
2020/12/11 13:46:51;;;;;;;;;;;1.70;99.90;;;0.69;82.59;93976.66;10392861;28;2034;-82
2020/12/11 13:51:53;;;;;;;;;;;1.70;99.90;;;0.87;82.10;93968.31;10380261;28;1574;-80
2020/12/11 13:56:55;;;;;;;;;;;1.90;99.90;;;0.76;81.54;93974.59;10395974;28;1962;-83
2020/12/11 14:01:56;;;;;;;;;;;3.90;99.90;;;0.68;82.07;93972.44;10386646;28;2049;-82
2020/12/11 14:07:01;;;;;;;;;;;1.80;99.90;;;0.77;81.81;93970.91;10389975;28;2119;-83
2020/12/11 14:12:03;;;;;;;;;;;1.80;99.90;;;0.88;81.93;93964.59;10385882;28;2019;-84
2020/12/11 14:17:07;;;;;;;;;;;1.90;99.90;;;0.93;81.62;93972.56;10392735;28;1914;-81
2020/12/11 14:22:17;;;;;;;;;;;3.30;99.90;;;1.17;80.50;93954.44;10403883;28;1939;-81
2020/12/11 14:27:19;;;;;;;;;;;2.10;99.90;;;1.10;80.19;93939.84;10388513;28;1884;-82
2020/12/11 14:32:20;;;;;;;;;;;2.20;99.90;;;1.11;80.32;93947.53;10386556;28;2022;-82
2020/12/11 14:37:22;;;;;;;;;;;2.20;99.90;;;1.06;80.00;93943.00;10385128;28;1965;-81
2020/12/11 14:42:24;;;;;;;;;;;2.20;99.90;;;0.96;80.52;93936.88;10385346;28;1974;-81
2020/12/11 14:47:25;;;;;;;;;;;2.10;99.90;;;0.79;81.23;93950.28;10386083;28;2293;-80
2020/12/11 14:52:27;;;;;;;;;;;2.00;99.90;;;0.86;81.71;93955.34;10397455;28;2256;-82
2020/12/11 14:57:29;;;;;;;;;;;1.90;99.90;;;0.86;80.86;93956.13;10397453;28;2034;-81
2020/12/11 15:02:31;;;;;;;;;;;2.00;99.90;;;0.88;81.01;93958.53;10395505;28;1841;-81
2020/12/11 15:07:33;;;;;;;;;;;2.00;99.90;;;0.88;81.20;93950.59;10393100;28;1837;-81
2020/12/11 15:12:34;;;;;;;;;;;2.00;99.90;;;0.83;81.10;93951.38;10396916;28;1973;-82
2020/12/11 15:17:37;;;;;;;;;;;2.00;99.90;;;0.82;82.24;93952.41;10394534;28;1995;-81
2020/12/11 15:22:38;;;;;;;;;;;3.00;99.90;;;0.78;82.26;93954.00;10378246;28;2343;-80
2020/12/11 15:27:40;;;;;;;;;;;3.70;99.90;;;0.75;81.80;93950.00;10372606;28;3038;-81
2020/12/11 15:32:42;;;;;;;;;;;1.90;99.90;;;0.70;82.10;93946.53;10376614;28;3071;-81
2020/12/11 15:37:44;;;;;;;;;;;1.90;99.90;;;0.62;82.79;93949.66;10385235;28;2001;-82
2020/12/11 15:42:47;;;;;;;;;;;1.70;99.90;;;0.46;83.32;93935.56;10387143;28;2074;-82
2020/12/11 15:47:49;;;;;;;;;;;1.70;99.90;;;0.40;83.31;93928.66;10391612;28;2006;-80
2020/12/11 15:52:51;;;;;;;;;;;1.60;99.90;;;0.23;83.98;93926.16;10384544;28;1966;-82
2020/12/11 15:57:53;;;;;;;;;;;1.50;99.90;;;0.10;84.98;93922.09;10379807;28;2269;-82
2020/12/11 16:02:55;;;;;;;;;;;1.30;99.90;;;0.12;85.32;93927.13;10390793;28;2129;-81
2020/12/11 16:07:56;;;;;;;;;;;1.20;99.90;;;0.09;85.65;93922.38;10384176;28;1746;-82
2020/12/11 16:12:59;;;;;;;;;;;1.30;99.90;;;0.10;85.67;93910.75;10382045;28;1526;-83
2020/12/11 16:18:02;;;;;;;;;;;1.20;99.90;;;0.04;86.18;93919.69;10389032;28;1902;-80
2020/12/11 16:23:04;;;;;;;;;;;1.20;99.90;;;0.06;86.59;93925.50;10383162;28;1596;-83
2020/12/11 16:28:06;;;;;;;;;;;1.20;99.90;;;0.06;86.49;93921.00;10382560;28;1379;-82
2020/12/11 16:33:10;;;;;;;;;;;1.20;99.90;;;0.01;86.42;93918.34;10378746;28;1638;-81
2020/12/11 16:38:13;;;;;;;;;;;1.20;99.90;;;-0.06;86.60;93913.28;10381102;28;2091;-83
2020/12/11 16:43:19;;;;;;;;;;;1.60;99.90;;;-0.16;87.31;93913.19;10387972;28;1395;-84
2020/12/11 16:48:32;;;;;;;;;;;1.60;99.90;;;-0.28;87.72;93915.22;10402968;28;1550;-81
2020/12/11 16:53:38;;;;;;;;;;;3.00;99.90;;;-0.32;88.46;93919.38;10390450;28;1420;-82
2020/12/11 16:58:50;;;;;;;;;;;2.10;99.90;;;-0.37;88.87;93922.00;10393809;28;1987;-81
2020/12/11 17:09:35;;;;;;;;;;;2.20;99.90;;;-0.31;88.65;93923.66;10396720;28;1536;-83
2020/12/11 17:14:38;;;;;;;;;;;0.80;99.90;;;-0.30;88.88;93912.03;10395316;28;1542;-82
2020/12/11 17:19:49;;;;;;;;;;;0.90;99.90;;;-0.29;88.94;93910.97;10398401;28;1894;-83
2020/12/11 17:30:15;;;;;;;;;;;2.00;99.90;;;-0.17;88.25;93900.25;10371010;28;1567;-82
2020/12/11 17:35:39;;;;;;;;;;;1.40;99.90;;;-0.13;87.87;93882.84;10408591;28;2061;-83
2020/12/11 17:40:42;;;;;;;;;;;2.40;99.90;;;-0.18;88.30;93883.63;10412470;28;1918;-82
2020/12/11 17:45:45;;;;;;;;;;;2.70;99.90;;;-0.16;88.57;93878.88;10420483;28;1388;-83
2020/12/11 17:50:48;;;;;;;;;;;0.90;99.90;;;-0.15;88.35;93888.38;10408739;28;1464;-81
2020/12/11 17:55:50;;;;;;;;;;;1.00;99.90;;;-0.06;87.81;93886.88;10386650;28;1393;-83
2020/12/11 18:00:52;;;;;;;;;;;0.90;99.90;;;0.03;87.72;93896.97;10380399;28;2001;-81
2020/12/11 18:05:54;;;;;;;;;;;1.30;99.90;;;0.13;87.51;93915.53;10379714;28;1650;-82
2020/12/11 18:10:56;;;;;;;;;;;1.20;99.90;;;0.15;86.96;93905.50;10393860;28;1243;-81
2020/12/11 18:16:00;;;;;;;;;;;1.20;99.90;;;0.14;87.21;93896.00;10393079;28;1554;-84
2020/12/11 18:21:03;;;;;;;;;;;1.70;99.90;;;0.26;87.04;93907.16;10416628;28;1910;-82
2020/12/11 18:26:05;;;;;;;;;;;1.90;99.90;;;0.11;86.72;93893.84;10395660;28;1779;-83
2020/12/11 18:31:07;;;;;;;;;;;1.20;99.90;;;0.12;87.13;93879.56;10412323;28;1674;-80
2020/12/11 18:36:09;;;;;;;;;;;1.40;99.90;;;-0.03;87.78;93870.50;10415676;28;1607;-80
2020/12/11 18:41:11;;;;;;;;;;;1.10;99.90;;;-0.06;87.55;93876.31;10400607;28;1926;-82
2020/12/11 18:46:13;;;;;;;;;;;1.00;99.90;;;0.02;87.63;93882.16;10389913;28;1153;-82
2020/12/11 18:51:14;;;;;;;;;;;2.70;99.90;;;0.17;87.25;93906.03;10390803;28;1534;-81
2020/12/11 18:56:20;;;;;;;;;;;1.20;99.90;;;0.09;87.22;93882.75;10389495;28;1605;-83
2020/12/11 19:01:22;;;;;;;;;;;3.10;99.90;;;0.15;87.21;93881.72;10386466;28;1915;-81
2020/12/11 19:06:25;;;;;;;;;;;1.20;99.90;;;0.24;87.18;93882.81;10391769;28;1614;-82
2020/12/11 19:11:27;;;;;;;;;;;1.30;99.90;;;0.34;87.11;93877.59;10389533;28;1489;-82
2020/12/11 19:16:29;;;;;;;;;;;1.30;99.90;;;0.35;86.88;93876.56;10401464;28;1554;-82
2020/12/11 19:21:31;;;;;;;;;;;1.40;99.90;;;0.62;87.80;93880.91;10392349;28;1974;-82
2020/12/11 19:26:32;;;;;;;;;;;1.60;99.90;;;0.35;85.64;93876.56;10387432;28;1792;-82
2020/12/11 19:31:34;;;;;;;;;;;2.30;99.90;;;0.35;86.19;93871.28;10383438;28;1666;-82
2020/12/11 19:36:36;;;;;;;;;;;1.40;99.90;;;0.34;88.21;93880.25;10385584;28;1718;-82
2020/12/11 19:41:43;;;;;;;;;;;1.40;99.90;;;0.35;86.43;93883.69;10383089;28;1910;-82
2020/12/11 19:46:45;;;;;;;;;;;1.50;99.90;;;0.15;87.28;93889.66;10383412;28;1501;-81
2020/12/11 19:51:47;;;;;;;;;;;1.40;99.90;;;0.20;86.89;93889.69;10382969;28;1515;-84
2020/12/11 19:56:49;;;;;;;;;;;1.30;99.90;;;0.10;86.93;93900.97;10386945;28;1742;-82
2020/12/11 20:01:51;;;;;;;;;;;1.20;99.90;;;0.10;87.65;93884.31;10382402;28;1910;-83
2020/12/11 20:07:02;;;;;;;;;;;1.20;99.90;;;0.19;87.41;93883.63;10378987;28;1515;-80
2020/12/11 20:12:04;;;;;;;;;;;2.40;99.90;;;0.13;87.20;93879.34;10378837;28;1413;-80
2020/12/11 20:17:06;;;;;;;;;;;2.00;99.90;;;0.14;87.46;93878.28;10401697;28;1567;-80
2020/12/11 20:22:08;;;;;;;;;;;1.20;99.90;;;0.14;87.33;93880.13;10394961;28;3052;-81
2020/12/11 20:27:14;;;;;;;;;;;1.20;99.90;;;0.11;87.41;93886.72;10395609;28;2383;-81
2020/12/11 20:32:18;;;;;;;;;;;1.20;99.90;;;0.11;87.75;93891.19;10382492;28;1320;-83
2020/12/11 20:37:29;;;;;;;;;;;1.10;99.90;;;0.24;87.10;93885.47;10402084;28;2122;-82
2020/12/11 20:42:31;;;;;;;;;;;3.10;99.90;;;0.05;87.87;93892.22;10386420;28;1566;-82
2020/12/11 20:47:54;;;;;;;;;;;1.20;99.90;;;-0.01;87.92;93891.38;10400147;28;2131;-83
2020/12/11 20:52:59;;;;;;;;;;;3.00;99.90;;;-0.07;88.29;93893.19;10386858;28;1582;-82
2020/12/11 20:58:01;;;;;;;;;;;2.00;99.90;;;-0.03;88.51;93893.50;10408786;28;1965;-83
2020/12/11 21:03:05;;;;;;;;;;;2.60;99.90;;;-0.14;88.91;93889.19;10380944;28;1616;-81
2020/12/11 21:08:07;;;;;;;;;;;2.40;99.90;;;-0.05;88.33;93888.47;10383811;28;1609;-79
2020/12/11 21:13:09;;;;;;;;;;;1.00;99.90;;;-0.10;88.95;93879.72;10386623;28;1589;-81
2020/12/11 21:18:11;;;;;;;;;;;2.30;99.90;;;0.06;88.42;93877.94;10387121;28;1987;-82
2020/12/11 21:23:15;;;;;;;;;;;1.10;99.90;;;0.04;88.65;93891.41;10383806;28;1583;-83
2020/12/11 21:28:17;;;;;;;;;;;1.10;99.90;;;0.08;88.20;93887.22;10385841;28;1559;-82
2020/12/11 21:33:23;;;;;;;;;;;1.10;99.90;;;0.03;88.19;93886.41;10392444;28;1471;-82
2020/12/11 21:38:25;;;;;;;;;;;1.10;99.90;;;-0.14;88.79;93883.91;10384308;28;1914;-84
2020/12/11 21:43:29;;;;;;;;;;;1.00;99.90;;;-0.03;88.76;93889.00;10382566;28;1989;-83
2020/12/11 21:48:32;;;;;;;;;;;2.20;99.90;;;0.13;88.20;93883.84;10381574;28;1642;-84
2020/12/11 21:53:37;;;;;;;;;;;1.10;99.90;;;0.09;87.75;93878.25;10386905;28;1526;-82
2020/12/11 21:59:00;;;;;;;;;;;1.20;99.90;;;0.04;88.05;93878.22;10387014;28;2012;-82
2020/12/11 22:04:06;;;;;;;;;;;2.40;99.90;;;0.09;88.00;93878.25;10385947;28;1478;-81
2020/12/11 22:09:15;;;;;;;;;;;1.10;99.90;;;0.05;87.85;93877.16;10375510;28;1578;-81
2020/12/11 22:14:26;;;;;;;;;;;1.20;99.90;;;0.12;87.76;93875.09;10373292;28;1522;-81
2020/12/11 22:19:33;;;;;;;;;;;1.20;99.90;;;0.04;87.78;93867.66;10391933;28;1902;-78
2020/12/11 22:24:40;;;;;;;;;;;1.70;99.90;;;0.03;88.14;93862.63;10390197;28;1486;-81
2020/12/11 22:29:42;;;;;;;;;;;2.30;99.90;;;0.03;87.86;93858.13;10389768;28;1506;-82
2020/12/11 22:34:44;;;;;;;;;;;1.10;99.90;;;-0.04;87.94;93853.06;10394439;28;1674;-80
2020/12/11 22:39:46;;;;;;;;;;;1.10;99.90;;;-0.07;88.13;93853.56;10389410;28;1883;-81
2020/12/11 22:44:49;;;;;;;;;;;1.00;99.90;;;-0.08;88.75;93851.19;10393530;28;1595;-81
2020/12/11 22:49:51;;;;;;;;;;;1.00;99.90;;;0.04;88.46;93858.94;10388157;28;1657;-81
2020/12/11 22:54:52;;;;;;;;;;;1.10;99.90;;;0.01;88.27;93857.59;10391982;28;1577;-79
2020/12/11 22:59:54;;;;;;;;;;;2.90;99.90;;;0.07;88.30;93861.06;10394407;28;1910;-79
2020/12/11 23:04:55;;;;;;;;;;;1.10;99.90;;;-0.04;88.24;93842.50;10385031;28;1215;-81
2020/12/11 23:09:57;;;;;;;;;;;1.10;99.90;;;0.04;88.39;93848.34;10379240;28;1667;-81
2020/12/11 23:14:59;;;;;;;;;;;1.10;99.90;;;0.01;88.46;93848.88;10392675;28;1207;-82
2020/12/11 23:20:00;;;;;;;;;;;1.10;99.90;;;-0.09;88.62;93839.03;10380893;28;1934;-80
2020/12/11 23:25:02;;;;;;;;;;;2.00;99.90;;;-0.12;88.74;93832.44;10384739;28;1321;-82
2020/12/11 23:30:04;;;;;;;;;;;1.00;99.90;;;-0.21;89.47;93836.56;10383851;28;1924;-81
2020/12/11 23:35:05;;;;;;;;;;;0.90;99.90;;;-0.16;89.32;93828.69;10385507;28;1983;-81
2020/12/11 23:40:07;;;;;;;;;;;0.90;99.90;;;-0.17;89.62;93815.75;10395123;28;1987;-83
2020/12/11 23:45:09;;;;;;;;;;;2.30;99.90;;;-0.14;89.36;93807.31;10389352;28;1995;-82
2020/12/11 23:50:11;;;;;;;;;;;0.90;99.90;;;-0.12;89.24;93802.59;10415816;28;1636;-81
2020/12/11 23:55:12;;;;;;;;;;;0.90;99.90;;;0.03;88.29;93818.50;10416319;28;1884;-81
